sensor_id;sensor_type;location;lat;lon;timestamp;temperature;humidity
59923;DHT22;45778;51.142;3.732;2023-02-04T00:02:19;10.60;99.90
59923;DHT22;45778;51.142;3.732;2023-02-04T00:04:45;10.60;99.90
59923;DHT22;45778;51.142;3.732;2023-02-04T00:07:11;10.60;99.90
59923;DHT22;45778;51.142;3.732;2023-02-04T00:09:36;10.60;99.90
59923;DHT22;45778;51.142;3.732;2023-02-04T00:12:02;10.60;99.90
59923;DHT22;45778;51.142;3.732;2023-02-04T00:14:28;10.60;99.90
59923;DHT22;45778;51.142;3.732;2023-02-04T00:16:54;10.60;99.90
59923;DHT22;45778;51.142;3.732;2023-02-04T00:19:19;10.60;99.90
59923;DHT22;45778;51.142;3.732;2023-02-04T00:21:45;10.60;99.90
59923;DHT22;45778;51.142;3.732;2023-02-04T00:24:11;10.60;99.90
59923;DHT22;45778;51.142;3.732;2023-02-04T00:26:36;10.60;99.90
59923;DHT22;45778;51.142;3.732;2023-02-04T00:29:02;10.60;99.90
59923;DHT22;45778;51.142;3.732;2023-02-04T00:31:28;10.60;99.90
59923;DHT22;45778;51.142;3.732;2023-02-04T00:33:53;10.70;99.90
59923;DHT22;45778;51.142;3.732;2023-02-04T00:36:19;10.80;99.90
59923;DHT22;45778;51.142;3.732;2023-02-04T00:38:45;10.90;99.90
59923;DHT22;45778;51.142;3.732;2023-02-04T00:41:10;10.80;99.90
59923;DHT22;45778;51.142;3.732;2023-02-04T00:43:36;10.90;99.90
59923;DHT22;45778;51.142;3.732;2023-02-04T00:46:02;11.00;99.90
59923;DHT22;45778;51.142;3.732;2023-02-04T00:48:27;11.00;99.90
59923;DHT22;45778;51.142;3.732;2023-02-04T00:50:53;11.00;99.90
59923;DHT22;45778;51.142;3.732;2023-02-04T00:53:19;10.90;99.90
59923;DHT22;45778;51.142;3.732;2023-02-04T00:55:44;10.90;99.90
59923;DHT22;45778;51.142;3.732;2023-02-04T00:58:10;10.70;99.90
59923;DHT22;45778;51.142;3.732;2023-02-04T01:00:36;10.60;99.90
59923;DHT22;45778;51.142;3.732;2023-02-04T01:03:02;10.70;99.90
59923;DHT22;45778;51.142;3.732;2023-02-04T01:05:27;10.70;99.90
59923;DHT22;45778;51.142;3.732;2023-02-04T01:07:53;10.50;99.90
59923;DHT22;45778;51.142;3.732;2023-02-04T01:10:19;10.50;99.90
59923;DHT22;45778;51.142;3.732;2023-02-04T01:12:44;10.50;99.90
59923;DHT22;45778;51.142;3.732;2023-02-04T01:15:10;10.50;99.90
59923;DHT22;45778;51.142;3.732;2023-02-04T01:17:36;10.40;99.90
59923;DHT22;45778;51.142;3.732;2023-02-04T01:20:02;10.30;99.90
59923;DHT22;45778;51.142;3.732;2023-02-04T01:22:27;10.30;99.90
59923;DHT22;45778;51.142;3.732;2023-02-04T01:24:53;10.50;99.90
59923;DHT22;45778;51.142;3.732;2023-02-04T01:27:19;10.60;99.90
59923;DHT22;45778;51.142;3.732;2023-02-04T01:29:44;10.50;99.90
59923;DHT22;45778;51.142;3.732;2023-02-04T01:32:10;10.40;99.90
59923;DHT22;45778;51.142;3.732;2023-02-04T01:34:36;10.40;99.90
59923;DHT22;45778;51.142;3.732;2023-02-04T01:37:01;10.40;99.90
59923;DHT22;45778;51.142;3.732;2023-02-04T01:39:27;10.40;99.90
59923;DHT22;45778;51.142;3.732;2023-02-04T01:41:53;10.40;99.90
59923;DHT22;45778;51.142;3.732;2023-02-04T01:44:18;10.40;99.90
59923;DHT22;45778;51.142;3.732;2023-02-04T01:46:44;10.20;99.90
59923;DHT22;45778;51.142;3.732;2023-02-04T01:49:10;10.10;99.90
59923;DHT22;45778;51.142;3.732;2023-02-04T01:51:36;10.10;99.90
59923;DHT22;45778;51.142;3.732;2023-02-04T01:54:02;10.10;99.90
59923;DHT22;45778;51.142;3.732;2023-02-04T01:56:29;10.00;99.90
59923;DHT22;45778;51.142;3.732;2023-02-04T01:58:57;10.00;99.90
59923;DHT22;45778;51.142;3.732;2023-02-04T02:01:40;9.90;99.90
59923;DHT22;45778;51.142;3.732;2023-02-04T02:04:08;10.00;99.90
59923;DHT22;45778;51.142;3.732;2023-02-04T02:06:35;9.90;99.90
59923;DHT22;45778;51.142;3.732;2023-02-04T02:09:02;9.90;99.90
59923;DHT22;45778;51.142;3.732;2023-02-04T02:11:28;9.80;99.90
59923;DHT22;45778;51.142;3.732;2023-02-04T02:13:55;9.80;99.90
59923;DHT22;45778;51.142;3.732;2023-02-04T02:16:21;9.80;99.90
59923;DHT22;45778;51.142;3.732;2023-02-04T02:18:47;9.70;99.90
59923;DHT22;45778;51.142;3.732;2023-02-04T02:21:15;9.80;99.90
59923;DHT22;45778;51.142;3.732;2023-02-04T02:23:48;9.70;99.90
59923;DHT22;45778;51.142;3.732;2023-02-04T02:26:15;9.70;99.90
59923;DHT22;45778;51.142;3.732;2023-02-04T02:28:42;9.80;99.90
59923;DHT22;45778;51.142;3.732;2023-02-04T02:31:08;9.70;99.90
59923;DHT22;45778;51.142;3.732;2023-02-04T02:33:34;9.70;99.90
59923;DHT22;45778;51.142;3.732;2023-02-04T02:36:01;9.60;99.90
59923;DHT22;45778;51.142;3.732;2023-02-04T02:38:26;9.50;99.90
59923;DHT22;45778;51.142;3.732;2023-02-04T02:40:52;9.50;99.90
59923;DHT22;45778;51.142;3.732;2023-02-04T02:43:22;9.60;99.90
59923;DHT22;45778;51.142;3.732;2023-02-04T02:45:49;9.70;99.90
59923;DHT22;45778;51.142;3.732;2023-02-04T02:48:15;9.70;99.90
59923;DHT22;45778;51.142;3.732;2023-02-04T02:50:41;9.70;99.90
59923;DHT22;45778;51.142;3.732;2023-02-04T02:53:18;9.90;99.90
59923;DHT22;45778;51.142;3.732;2023-02-04T02:55:45;9.80;99.90
59923;DHT22;45778;51.142;3.732;2023-02-04T02:58:31;9.90;99.90
59923;DHT22;45778;51.142;3.732;2023-02-04T03:00:58;10.00;99.90
59923;DHT22;45778;51.142;3.732;2023-02-04T03:03:27;9.80;99.90
59923;DHT22;45778;51.142;3.732;2023-02-04T03:05:59;9.70;99.90
59923;DHT22;45778;51.142;3.732;2023-02-04T03:08:26;9.60;99.90
59923;DHT22;45778;51.142;3.732;2023-02-04T03:10:52;9.50;99.90
59923;DHT22;45778;51.142;3.732;2023-02-04T03:13:18;9.50;99.90
59923;DHT22;45778;51.142;3.732;2023-02-04T03:15:46;9.60;99.90
59923;DHT22;45778;51.142;3.732;2023-02-04T03:18:15;9.60;99.90
59923;DHT22;45778;51.142;3.732;2023-02-04T03:20:42;9.60;99.90
59923;DHT22;45778;51.142;3.732;2023-02-04T03:23:08;9.60;99.90
59923;DHT22;45778;51.142;3.732;2023-02-04T03:25:34;9.50;99.90
59923;DHT22;45778;51.142;3.732;2023-02-04T03:28:00;9.50;99.90
59923;DHT22;45778;51.142;3.732;2023-02-04T03:30:26;9.60;99.90
59923;DHT22;45778;51.142;3.732;2023-02-04T03:32:52;9.60;99.90
59923;DHT22;45778;51.142;3.732;2023-02-04T03:35:18;9.60;99.90
59923;DHT22;45778;51.142;3.732;2023-02-04T03:37:44;9.60;99.90
59923;DHT22;45778;51.142;3.732;2023-02-04T03:40:11;9.70;99.90
59923;DHT22;45778;51.142;3.732;2023-02-04T03:42:37;9.80;99.90
59923;DHT22;45778;51.142;3.732;2023-02-04T03:45:03;9.70;99.90
59923;DHT22;45778;51.142;3.732;2023-02-04T03:47:29;9.80;99.90
59923;DHT22;45778;51.142;3.732;2023-02-04T03:49:54;9.80;99.90
59923;DHT22;45778;51.142;3.732;2023-02-04T03:52:20;9.90;99.90
59923;DHT22;45778;51.142;3.732;2023-02-04T03:54:46;9.70;99.90
59923;DHT22;45778;51.142;3.732;2023-02-04T03:57:12;9.70;99.90
59923;DHT22;45778;51.142;3.732;2023-02-04T03:59:40;9.60;99.90
59923;DHT22;45778;51.142;3.732;2023-02-04T04:02:06;9.50;99.90
59923;DHT22;45778;51.142;3.732;2023-02-04T04:04:32;9.50;99.90
59923;DHT22;45778;51.142;3.732;2023-02-04T04:06:57;9.40;99.90
59923;DHT22;45778;51.142;3.732;2023-02-04T04:09:23;9.40;99.90
59923;DHT22;45778;51.142;3.732;2023-02-04T04:11:49;9.40;99.90
59923;DHT22;45778;51.142;3.732;2023-02-04T04:14:14;9.40;99.90
59923;DHT22;45778;51.142;3.732;2023-02-04T04:16:40;9.40;99.90
59923;DHT22;45778;51.142;3.732;2023-02-04T04:19:06;9.40;99.90
59923;DHT22;45778;51.142;3.732;2023-02-04T04:21:32;9.40;99.90
59923;DHT22;45778;51.142;3.732;2023-02-04T04:23:57;9.50;99.90
59923;DHT22;45778;51.142;3.732;2023-02-04T04:26:23;9.50;99.90
59923;DHT22;45778;51.142;3.732;2023-02-04T04:28:49;9.60;99.90
59923;DHT22;45778;51.142;3.732;2023-02-04T04:31:14;9.60;99.90
59923;DHT22;45778;51.142;3.732;2023-02-04T04:33:40;9.60;99.90
59923;DHT22;45778;51.142;3.732;2023-02-04T04:36:07;9.70;99.90
59923;DHT22;45778;51.142;3.732;2023-02-04T04:38:33;9.70;99.90
59923;DHT22;45778;51.142;3.732;2023-02-04T04:40:58;9.80;99.90
59923;DHT22;45778;51.142;3.732;2023-02-04T04:43:24;9.70;99.90
59923;DHT22;45778;51.142;3.732;2023-02-04T04:45:50;9.70;99.90
59923;DHT22;45778;51.142;3.732;2023-02-04T04:48:16;9.80;99.90
59923;DHT22;45778;51.142;3.732;2023-02-04T04:50:41;9.70;99.90
59923;DHT22;45778;51.142;3.732;2023-02-04T04:53:07;9.70;99.90
59923;DHT22;45778;51.142;3.732;2023-02-04T04:55:37;9.80;99.90
59923;DHT22;45778;51.142;3.732;2023-02-04T04:58:04;9.80;99.90
59923;DHT22;45778;51.142;3.732;2023-02-04T05:00:29;9.90;99.90
59923;DHT22;45778;51.142;3.732;2023-02-04T05:02:55;9.80;99.90
59923;DHT22;45778;51.142;3.732;2023-02-04T05:05:21;9.90;99.90
59923;DHT22;45778;51.142;3.732;2023-02-04T05:07:47;9.90;99.90
59923;DHT22;45778;51.142;3.732;2023-02-04T05:10:12;9.80;99.90
59923;DHT22;45778;51.142;3.732;2023-02-04T05:12:38;9.80;99.90
59923;DHT22;45778;51.142;3.732;2023-02-04T05:15:04;9.90;99.90
59923;DHT22;45778;51.142;3.732;2023-02-04T05:17:30;9.90;99.90
59923;DHT22;45778;51.142;3.732;2023-02-04T05:19:56;9.70;99.90
59923;DHT22;45778;51.142;3.732;2023-02-04T05:22:22;9.60;99.90
59923;DHT22;45778;51.142;3.732;2023-02-04T05:24:47;9.60;99.90
59923;DHT22;45778;51.142;3.732;2023-02-04T05:27:13;9.60;99.90
59923;DHT22;45778;51.142;3.732;2023-02-04T05:29:39;9.50;99.90
59923;DHT22;45778;51.142;3.732;2023-02-04T05:32:05;9.40;99.90
59923;DHT22;45778;51.142;3.732;2023-02-04T05:34:30;9.50;99.90
59923;DHT22;45778;51.142;3.732;2023-02-04T05:36:56;9.40;99.90
59923;DHT22;45778;51.142;3.732;2023-02-04T05:39:21;9.40;99.90
59923;DHT22;45778;51.142;3.732;2023-02-04T05:41:47;9.40;99.90
59923;DHT22;45778;51.142;3.732;2023-02-04T05:44:13;9.40;99.90
59923;DHT22;45778;51.142;3.732;2023-02-04T05:46:39;9.40;99.90
59923;DHT22;45778;51.142;3.732;2023-02-04T05:49:04;9.40;99.90
59923;DHT22;45778;51.142;3.732;2023-02-04T05:51:32;9.50;99.90
59923;DHT22;45778;51.142;3.732;2023-02-04T05:53:57;9.50;99.90
59923;DHT22;45778;51.142;3.732;2023-02-04T05:56:23;9.50;99.90
59923;DHT22;45778;51.142;3.732;2023-02-04T05:58:50;9.60;99.90
59923;DHT22;45778;51.142;3.732;2023-02-04T06:01:16;9.60;99.90
59923;DHT22;45778;51.142;3.732;2023-02-04T06:03:42;9.60;99.90
59923;DHT22;45778;51.142;3.732;2023-02-04T06:06:08;9.60;99.90
59923;DHT22;45778;51.142;3.732;2023-02-04T06:08:33;9.60;99.90
59923;DHT22;45778;51.142;3.732;2023-02-04T06:10:59;9.50;99.90
59923;DHT22;45778;51.142;3.732;2023-02-04T06:13:25;9.60;99.90
59923;DHT22;45778;51.142;3.732;2023-02-04T06:15:50;9.50;99.90
59923;DHT22;45778;51.142;3.732;2023-02-04T06:18:16;9.50;99.90
59923;DHT22;45778;51.142;3.732;2023-02-04T06:20:42;9.50;99.90
59923;DHT22;45778;51.142;3.732;2023-02-04T06:23:07;9.50;99.90
59923;DHT22;45778;51.142;3.732;2023-02-04T06:25:33;9.60;99.90
59923;DHT22;45778;51.142;3.732;2023-02-04T06:27:59;9.50;99.90
59923;DHT22;45778;51.142;3.732;2023-02-04T06:30:25;9.40;99.90
59923;DHT22;45778;51.142;3.732;2023-02-04T06:32:50;9.40;99.90
59923;DHT22;45778;51.142;3.732;2023-02-04T06:35:16;9.40;99.90
59923;DHT22;45778;51.142;3.732;2023-02-04T06:37:42;9.50;99.90
59923;DHT22;45778;51.142;3.732;2023-02-04T06:40:09;9.40;99.90
59923;DHT22;45778;51.142;3.732;2023-02-04T06:42:35;9.40;99.90
59923;DHT22;45778;51.142;3.732;2023-02-04T06:45:01;9.40;99.90
59923;DHT22;45778;51.142;3.732;2023-02-04T06:47:27;9.40;99.90
59923;DHT22;45778;51.142;3.732;2023-02-04T06:49:52;9.40;99.90
59923;DHT22;45778;51.142;3.732;2023-02-04T06:52:18;9.40;99.90
59923;DHT22;45778;51.142;3.732;2023-02-04T06:54:44;9.30;99.90
59923;DHT22;45778;51.142;3.732;2023-02-04T06:57:09;9.30;99.90
59923;DHT22;45778;51.142;3.732;2023-02-04T06:59:38;9.30;99.90
59923;DHT22;45778;51.142;3.732;2023-02-04T07:02:05;9.30;99.90
59923;DHT22;45778;51.142;3.732;2023-02-04T07:04:32;9.40;99.90
59923;DHT22;45778;51.142;3.732;2023-02-04T07:06:57;9.40;99.90
59923;DHT22;45778;51.142;3.732;2023-02-04T07:09:23;9.40;99.90
59923;DHT22;45778;51.142;3.732;2023-02-04T07:11:49;9.50;99.90
59923;DHT22;45778;51.142;3.732;2023-02-04T07:14:15;9.50;99.90
59923;DHT22;45778;51.142;3.732;2023-02-04T07:16:41;9.30;99.90
59923;DHT22;45778;51.142;3.732;2023-02-04T07:19:07;9.30;99.90
59923;DHT22;45778;51.142;3.732;2023-02-04T07:21:32;9.30;99.90
59923;DHT22;45778;51.142;3.732;2023-02-04T07:23:58;9.30;99.90
59923;DHT22;45778;51.142;3.732;2023-02-04T07:26:24;9.30;99.90
59923;DHT22;45778;51.142;3.732;2023-02-04T07:28:49;9.30;99.90
59923;DHT22;45778;51.142;3.732;2023-02-04T07:31:15;9.30;99.90
59923;DHT22;45778;51.142;3.732;2023-02-04T07:33:41;9.30;99.90
59923;DHT22;45778;51.142;3.732;2023-02-04T07:36:07;9.30;99.90
59923;DHT22;45778;51.142;3.732;2023-02-04T07:38:33;9.30;99.90
59923;DHT22;45778;51.142;3.732;2023-02-04T07:40:58;9.30;99.90
59923;DHT22;45778;51.142;3.732;2023-02-04T07:43:24;9.40;99.90
59923;DHT22;45778;51.142;3.732;2023-02-04T07:45:51;9.40;99.90
59923;DHT22;45778;51.142;3.732;2023-02-04T07:48:17;9.40;99.90
59923;DHT22;45778;51.142;3.732;2023-02-04T07:50:43;9.40;99.90
59923;DHT22;45778;51.142;3.732;2023-02-04T07:53:08;9.50;99.90
59923;DHT22;45778;51.142;3.732;2023-02-04T07:55:34;9.60;99.90
59923;DHT22;45778;51.142;3.732;2023-02-04T07:58:00;9.60;99.90
59923;DHT22;45778;51.142;3.732;2023-02-04T08:00:26;9.70;99.90
59923;DHT22;45778;51.142;3.732;2023-02-04T08:02:52;9.50;99.90
59923;DHT22;45778;51.142;3.732;2023-02-04T08:05:17;9.60;99.90
59923;DHT22;45778;51.142;3.732;2023-02-04T08:07:43;9.50;99.90
59923;DHT22;45778;51.142;3.732;2023-02-04T08:10:10;9.40;99.90
59923;DHT22;45778;51.142;3.732;2023-02-04T08:12:36;9.40;99.90
59923;DHT22;45778;51.142;3.732;2023-02-04T08:15:02;9.40;99.90
59923;DHT22;45778;51.142;3.732;2023-02-04T08:17:28;9.50;99.90
59923;DHT22;45778;51.142;3.732;2023-02-04T08:19:54;9.50;99.90
59923;DHT22;45778;51.142;3.732;2023-02-04T08:22:20;9.50;99.90
59923;DHT22;45778;51.142;3.732;2023-02-04T08:24:45;9.40;99.90
59923;DHT22;45778;51.142;3.732;2023-02-04T08:27:11;9.30;99.90
59923;DHT22;45778;51.142;3.732;2023-02-04T08:29:37;9.50;99.90
59923;DHT22;45778;51.142;3.732;2023-02-04T08:32:03;9.50;99.90
59923;DHT22;45778;51.142;3.732;2023-02-04T08:34:29;9.40;99.90
59923;DHT22;45778;51.142;3.732;2023-02-04T08:36:55;9.50;99.90
59923;DHT22;45778;51.142;3.732;2023-02-04T08:39:20;9.60;99.90
59923;DHT22;45778;51.142;3.732;2023-02-04T08:41:47;9.60;99.90
59923;DHT22;45778;51.142;3.732;2023-02-04T08:44:14;9.80;99.90
59923;DHT22;45778;51.142;3.732;2023-02-04T08:46:40;9.90;99.90
59923;DHT22;45778;51.142;3.732;2023-02-04T08:49:05;10.00;99.90
59923;DHT22;45778;51.142;3.732;2023-02-04T08:51:31;9.90;99.90
59923;DHT22;45778;51.142;3.732;2023-02-04T08:53:57;9.90;99.90
59923;DHT22;45778;51.142;3.732;2023-02-04T08:56:23;10.10;99.90
59923;DHT22;45778;51.142;3.732;2023-02-04T08:58:49;10.20;99.90
59923;DHT22;45778;51.142;3.732;2023-02-04T09:01:17;10.30;99.90
59923;DHT22;45778;51.142;3.732;2023-02-04T09:03:43;10.30;99.90
59923;DHT22;45778;51.142;3.732;2023-02-04T09:06:10;10.40;99.90
59923;DHT22;45778;51.142;3.732;2023-02-04T09:08:35;10.50;99.90
59923;DHT22;45778;51.142;3.732;2023-02-04T09:11:02;10.50;99.90
59923;DHT22;45778;51.142;3.732;2023-02-04T09:13:29;10.60;99.90
59923;DHT22;45778;51.142;3.732;2023-02-04T09:15:55;10.60;99.90
59923;DHT22;45778;51.142;3.732;2023-02-04T09:18:21;10.50;99.90
59923;DHT22;45778;51.142;3.732;2023-02-04T09:20:48;10.60;99.90
59923;DHT22;45778;51.142;3.732;2023-02-04T09:23:14;10.60;99.90
59923;DHT22;45778;51.142;3.732;2023-02-04T09:25:42;10.70;99.90
59923;DHT22;45778;51.142;3.732;2023-02-04T09:28:09;10.50;99.90
59923;DHT22;45778;51.142;3.732;2023-02-04T09:30:39;10.50;99.90
59923;DHT22;45778;51.142;3.732;2023-02-04T09:33:06;10.40;99.90
59923;DHT22;45778;51.142;3.732;2023-02-04T09:35:32;10.40;99.90
59923;DHT22;45778;51.142;3.732;2023-02-04T09:37:57;10.50;99.90
59923;DHT22;45778;51.142;3.732;2023-02-04T09:40:26;10.70;99.90
59923;DHT22;45778;51.142;3.732;2023-02-04T09:42:53;11.00;99.90
59923;DHT22;45778;51.142;3.732;2023-02-04T09:45:22;11.20;99.90
59923;DHT22;45778;51.142;3.732;2023-02-04T09:47:49;11.40;99.90
59923;DHT22;45778;51.142;3.732;2023-02-04T09:50:18;11.60;99.90
59923;DHT22;45778;51.142;3.732;2023-02-04T09:52:49;11.90;99.90
59923;DHT22;45778;51.142;3.732;2023-02-04T09:55:18;12.00;99.90
59923;DHT22;45778;51.142;3.732;2023-02-04T09:57:45;11.70;99.90
59923;DHT22;45778;51.142;3.732;2023-02-04T10:00:16;11.70;99.90
59923;DHT22;45778;51.142;3.732;2023-02-04T10:02:43;11.60;99.90
59923;DHT22;45778;51.142;3.732;2023-02-04T10:05:34;11.40;99.90
59923;DHT22;45778;51.142;3.732;2023-02-04T10:08:03;11.60;99.90
59923;DHT22;45778;51.142;3.732;2023-02-04T10:10:30;11.90;99.90
59923;DHT22;45778;51.142;3.732;2023-02-04T10:13:00;12.10;99.90
59923;DHT22;45778;51.142;3.732;2023-02-04T10:15:26;12.20;99.90
59923;DHT22;45778;51.142;3.732;2023-02-04T10:18:00;12.30;99.90
59923;DHT22;45778;51.142;3.732;2023-02-04T10:20:26;12.30;99.90
59923;DHT22;45778;51.142;3.732;2023-02-04T10:22:53;12.40;99.90
59923;DHT22;45778;51.142;3.732;2023-02-04T10:25:21;12.30;99.90
59923;DHT22;45778;51.142;3.732;2023-02-04T10:27:58;12.30;99.90
59923;DHT22;45778;51.142;3.732;2023-02-04T10:30:38;12.40;99.90
59923;DHT22;45778;51.142;3.732;2023-02-04T10:33:15;12.50;99.90
59923;DHT22;45778;51.142;3.732;2023-02-04T10:35:46;12.60;99.90
59923;DHT22;45778;51.142;3.732;2023-02-04T10:38:12;12.50;99.90
59923;DHT22;45778;51.142;3.732;2023-02-04T10:40:38;12.40;99.90
59923;DHT22;45778;51.142;3.732;2023-02-04T10:43:16;12.60;99.90
59923;DHT22;45778;51.142;3.732;2023-02-04T10:45:53;12.60;99.90
59923;DHT22;45778;51.142;3.732;2023-02-04T10:48:20;12.50;99.90
59923;DHT22;45778;51.142;3.732;2023-02-04T10:50:47;12.20;99.90
59923;DHT22;45778;51.142;3.732;2023-02-04T10:53:19;12.20;99.90
59923;DHT22;45778;51.142;3.732;2023-02-04T10:56:04;12.30;99.90
59923;DHT22;45778;51.142;3.732;2023-02-04T10:58:34;12.30;99.90
59923;DHT22;45778;51.142;3.732;2023-02-04T11:01:00;12.60;99.90
59923;DHT22;45778;51.142;3.732;2023-02-04T11:03:27;12.70;99.90
59923;DHT22;45778;51.142;3.732;2023-02-04T11:05:57;12.60;99.90
59923;DHT22;45778;51.142;3.732;2023-02-04T11:08:31;12.80;99.90
59923;DHT22;45778;51.142;3.732;2023-02-04T11:11:05;12.70;99.90
59923;DHT22;45778;51.142;3.732;2023-02-04T11:13:44;12.80;99.90
59923;DHT22;45778;51.142;3.732;2023-02-04T11:18:50;13.10;99.90
59923;DHT22;45778;51.142;3.732;2023-02-04T11:21:26;13.00;99.90
59923;DHT22;45778;51.142;3.732;2023-02-04T11:26:49;13.30;99.90
59923;DHT22;45778;51.142;3.732;2023-02-04T11:29:34;12.90;99.90
59923;DHT22;45778;51.142;3.732;2023-02-04T11:32:28;13.00;99.90
59923;DHT22;45778;51.142;3.732;2023-02-04T11:37:41;13.00;99.90
59923;DHT22;45778;51.142;3.732;2023-02-04T11:40:26;13.20;99.90
59923;DHT22;45778;51.142;3.732;2023-02-04T11:43:10;13.20;99.90
59923;DHT22;45778;51.142;3.732;2023-02-04T11:45:37;13.10;99.90
59923;DHT22;45778;51.142;3.732;2023-02-04T11:48:17;13.20;99.90
59923;DHT22;45778;51.142;3.732;2023-02-04T11:50:57;13.20;99.90
59923;DHT22;45778;51.142;3.732;2023-02-04T11:53:27;13.20;99.90
59923;DHT22;45778;51.142;3.732;2023-02-04T11:55:54;13.20;99.90
59923;DHT22;45778;51.142;3.732;2023-02-04T11:58:20;12.90;99.90
59923;DHT22;45778;51.142;3.732;2023-02-04T12:00:46;13.00;99.90
59923;DHT22;45778;51.142;3.732;2023-02-04T12:03:30;13.10;99.90
59923;DHT22;45778;51.142;3.732;2023-02-04T12:05:59;13.10;99.90
59923;DHT22;45778;51.142;3.732;2023-02-04T12:08:31;13.10;99.90
59923;DHT22;45778;51.142;3.732;2023-02-04T12:11:07;13.00;99.90
59923;DHT22;45778;51.142;3.732;2023-02-04T12:13:55;12.90;99.90
59923;DHT22;45778;51.142;3.732;2023-02-04T12:16:21;12.80;99.90
59923;DHT22;45778;51.142;3.732;2023-02-04T12:18:48;12.90;99.90
59923;DHT22;45778;51.142;3.732;2023-02-04T12:21:13;12.80;99.90
59923;DHT22;45778;51.142;3.732;2023-02-04T12:23:39;12.70;99.90
59923;DHT22;45778;51.142;3.732;2023-02-04T12:26:07;12.70;99.90
59923;DHT22;45778;51.142;3.732;2023-02-04T12:28:33;12.90;99.90
59923;DHT22;45778;51.142;3.732;2023-02-04T12:30:59;13.10;99.90
59923;DHT22;45778;51.142;3.732;2023-02-04T12:33:25;13.10;99.90
59923;DHT22;45778;51.142;3.732;2023-02-04T12:35:51;13.00;99.90
59923;DHT22;45778;51.142;3.732;2023-02-04T12:38:17;13.10;99.90
59923;DHT22;45778;51.142;3.732;2023-02-04T12:40:43;13.20;99.90
59923;DHT22;45778;51.142;3.732;2023-02-04T12:43:09;12.70;99.90
59923;DHT22;45778;51.142;3.732;2023-02-04T12:45:35;12.70;99.90
59923;DHT22;45778;51.142;3.732;2023-02-04T12:48:02;12.70;99.90
59923;DHT22;45778;51.142;3.732;2023-02-04T12:50:28;12.90;99.90
59923;DHT22;45778;51.142;3.732;2023-02-04T12:52:56;13.10;99.90
59923;DHT22;45778;51.142;3.732;2023-02-04T12:55:23;13.10;99.90
59923;DHT22;45778;51.142;3.732;2023-02-04T12:57:50;13.10;99.90
59923;DHT22;45778;51.142;3.732;2023-02-04T13:00:16;13.10;99.90
59923;DHT22;45778;51.142;3.732;2023-02-04T13:02:42;13.00;99.90
59923;DHT22;45778;51.142;3.732;2023-02-04T13:05:08;12.60;99.90
59923;DHT22;45778;51.142;3.732;2023-02-04T13:07:35;12.50;99.90
59923;DHT22;45778;51.142;3.732;2023-02-04T13:10:01;12.50;99.90
59923;DHT22;45778;51.142;3.732;2023-02-04T13:12:26;12.40;99.90
59923;DHT22;45778;51.142;3.732;2023-02-04T13:14:52;12.30;99.90
59923;DHT22;45778;51.142;3.732;2023-02-04T13:17:18;12.40;99.90
59923;DHT22;45778;51.142;3.732;2023-02-04T13:19:44;12.50;99.90
59923;DHT22;45778;51.142;3.732;2023-02-04T13:22:10;12.30;99.90
59923;DHT22;45778;51.142;3.732;2023-02-04T13:24:35;12.40;99.90
59923;DHT22;45778;51.142;3.732;2023-02-04T13:27:01;12.40;99.90
59923;DHT22;45778;51.142;3.732;2023-02-04T13:29:27;12.50;99.90
59923;DHT22;45778;51.142;3.732;2023-02-04T13:31:52;12.60;99.90
59923;DHT22;45778;51.142;3.732;2023-02-04T13:34:18;12.30;99.90
59923;DHT22;45778;51.142;3.732;2023-02-04T13:36:44;12.20;99.90
59923;DHT22;45778;51.142;3.732;2023-02-04T13:39:10;12.10;99.90
59923;DHT22;45778;51.142;3.732;2023-02-04T13:41:36;12.10;99.90
59923;DHT22;45778;51.142;3.732;2023-02-04T13:44:03;12.20;99.90
59923;DHT22;45778;51.142;3.732;2023-02-04T13:46:29;12.30;99.90
59923;DHT22;45778;51.142;3.732;2023-02-04T13:48:55;12.40;99.90
59923;DHT22;45778;51.142;3.732;2023-02-04T13:51:20;12.50;99.90
59923;DHT22;45778;51.142;3.732;2023-02-04T13:53:46;12.30;99.90
59923;DHT22;45778;51.142;3.732;2023-02-04T13:56:12;12.30;99.90
59923;DHT22;45778;51.142;3.732;2023-02-04T13:58:38;12.20;99.90
59923;DHT22;45778;51.142;3.732;2023-02-04T14:01:09;12.10;99.90
59923;DHT22;45778;51.142;3.732;2023-02-04T14:03:35;12.00;99.90
59923;DHT22;45778;51.142;3.732;2023-02-04T14:06:01;12.10;99.90
59923;DHT22;45778;51.142;3.732;2023-02-04T14:08:26;12.00;99.90
59923;DHT22;45778;51.142;3.732;2023-02-04T14:10:52;11.90;99.90
59923;DHT22;45778;51.142;3.732;2023-02-04T14:13:18;11.80;99.90
59923;DHT22;45778;51.142;3.732;2023-02-04T14:15:44;11.60;99.90
59923;DHT22;45778;51.142;3.732;2023-02-04T14:18:09;11.60;99.90
59923;DHT22;45778;51.142;3.732;2023-02-04T14:20:36;11.70;99.90
59923;DHT22;45778;51.142;3.732;2023-02-04T14:23:02;11.80;99.90
59923;DHT22;45778;51.142;3.732;2023-02-04T14:25:28;11.60;99.90
59923;DHT22;45778;51.142;3.732;2023-02-04T14:27:54;11.50;99.90
59923;DHT22;45778;51.142;3.732;2023-02-04T14:30:27;11.40;99.90
59923;DHT22;45778;51.142;3.732;2023-02-04T14:32:54;11.50;99.90
59923;DHT22;45778;51.142;3.732;2023-02-04T14:35:20;11.40;99.90
59923;DHT22;45778;51.142;3.732;2023-02-04T14:37:46;11.30;99.90
59923;DHT22;45778;51.142;3.732;2023-02-04T14:40:14;11.50;99.90
59923;DHT22;45778;51.142;3.732;2023-02-04T14:42:40;11.50;99.90
59923;DHT22;45778;51.142;3.732;2023-02-04T14:45:12;11.50;99.90
59923;DHT22;45778;51.142;3.732;2023-02-04T14:47:39;11.40;99.90
59923;DHT22;45778;51.142;3.732;2023-02-04T14:50:15;11.50;99.90
59923;DHT22;45778;51.142;3.732;2023-02-04T14:52:41;11.40;99.90
59923;DHT22;45778;51.142;3.732;2023-02-04T14:55:08;11.40;99.90
59923;DHT22;45778;51.142;3.732;2023-02-04T14:57:36;11.40;99.90
59923;DHT22;45778;51.142;3.732;2023-02-04T15:00:03;11.40;99.90
59923;DHT22;45778;51.142;3.732;2023-02-04T15:02:29;11.50;99.90
59923;DHT22;45778;51.142;3.732;2023-02-04T15:04:55;11.50;99.90
59923;DHT22;45778;51.142;3.732;2023-02-04T15:07:20;11.60;99.90
59923;DHT22;45778;51.142;3.732;2023-02-04T15:09:46;11.60;99.90
59923;DHT22;45778;51.142;3.732;2023-02-04T15:12:12;11.60;99.90
59923;DHT22;45778;51.142;3.732;2023-02-04T15:14:38;11.50;99.90
59923;DHT22;45778;51.142;3.732;2023-02-04T15:17:04;11.60;99.90
59923;DHT22;45778;51.142;3.732;2023-02-04T15:19:29;11.60;99.90
59923;DHT22;45778;51.142;3.732;2023-02-04T15:21:55;11.50;99.90
59923;DHT22;45778;51.142;3.732;2023-02-04T15:24:21;11.40;99.90
59923;DHT22;45778;51.142;3.732;2023-02-04T15:26:47;11.30;99.90
59923;DHT22;45778;51.142;3.732;2023-02-04T15:29:15;11.20;99.90
59923;DHT22;45778;51.142;3.732;2023-02-04T15:31:41;11.10;99.90
59923;DHT22;45778;51.142;3.732;2023-02-04T15:34:06;11.10;99.90
59923;DHT22;45778;51.142;3.732;2023-02-04T15:36:32;11.30;99.90
59923;DHT22;45778;51.142;3.732;2023-02-04T15:38:58;11.20;99.90
59923;DHT22;45778;51.142;3.732;2023-02-04T15:41:23;11.10;99.90
59923;DHT22;45778;51.142;3.732;2023-02-04T15:43:49;11.00;99.90
59923;DHT22;45778;51.142;3.732;2023-02-04T15:46:15;11.00;99.90